createdAt,value
2018-06-21T00:01:38.329Z,16.80
2018-06-21T00:04:07.457Z,16.70
2018-06-21T00:06:38.158Z,16.60
2018-06-21T00:09:08.400Z,16.50
2018-06-21T00:11:37.868Z,16.50
2018-06-21T00:14:07.169Z,16.50
2018-06-21T00:16:41.686Z,16.50
2018-06-21T00:19:27.569Z,16.50
2018-06-21T00:22:00.562Z,16.40
2018-06-21T00:24:29.664Z,16.30
2018-06-21T00:26:58.810Z,16.30
2018-06-21T00:29:27.938Z,16.30
2018-06-21T00:31:57.177Z,16.20
2018-06-21T00:34:26.443Z,16.30
2018-06-21T00:36:55.596Z,16.20
2018-06-21T00:39:25.296Z,16.10
2018-06-21T00:41:56.293Z,16.10
2018-06-21T00:44:25.399Z,16.10
2018-06-21T00:46:54.574Z,16.10
2018-06-21T00:49:23.725Z,16.00
2018-06-21T00:51:52.977Z,16.00
2018-06-21T00:54:22.108Z,16.10
2018-06-21T00:56:51.347Z,15.90
2018-06-21T00:59:21.067Z,15.90
2018-06-21T01:01:50.192Z,15.90
2018-06-21T01:04:19.382Z,15.80
2018-06-21T01:06:48.516Z,15.70
2018-06-21T01:09:17.693Z,15.70
2018-06-21T01:11:46.822Z,15.60
2018-06-21T01:14:15.946Z,15.50
2018-06-21T01:16:45.198Z,15.40
2018-06-21T01:19:14.464Z,15.30
2018-06-21T01:21:43.621Z,15.30
2018-06-21T01:24:12.869Z,15.20
2018-06-21T01:26:42.001Z,15.10
2018-06-21T01:29:11.186Z,15.20
2018-06-21T01:31:40.360Z,15.10
2018-06-21T01:34:09.492Z,15.10
2018-06-21T01:36:38.644Z,15.00
2018-06-21T01:39:08.909Z,14.80
2018-06-21T01:41:38.509Z,14.80
2018-06-21T01:44:07.820Z,14.80
2018-06-21T01:46:37.154Z,14.80
2018-06-21T01:49:06.295Z,14.80
2018-06-21T01:51:35.402Z,14.80
2018-06-21T01:54:04.561Z,14.60
2018-06-21T01:56:33.704Z,14.60
2018-06-21T01:59:03.009Z,14.50
2018-06-21T02:01:32.121Z,14.50
2018-06-21T02:04:01.307Z,14.50
2018-06-21T02:06:30.488Z,14.50
2018-06-21T02:08:59.764Z,14.50
2018-06-21T02:11:29.016Z,14.50
2018-06-21T02:13:58.214Z,14.40
2018-06-21T02:16:27.300Z,14.50
2018-06-21T02:18:56.481Z,14.40
2018-06-21T02:21:25.597Z,14.50
2018-06-21T02:23:54.761Z,14.50
2018-06-21T02:26:23.914Z,14.40
2018-06-21T02:28:53.034Z,14.40
2018-06-21T02:31:22.224Z,14.40
2018-06-21T02:33:51.353Z,14.40
2018-06-21T02:36:20.497Z,14.40
2018-06-21T02:38:49.603Z,14.50
2018-06-21T02:41:18.881Z,14.50
2018-06-21T02:43:47.999Z,14.60
2018-06-21T02:46:17.204Z,14.60
2018-06-21T02:48:46.420Z,14.60
2018-06-21T02:51:15.601Z,14.60
2018-06-21T02:53:44.792Z,14.60
2018-06-21T02:56:14.093Z,14.60
2018-06-21T02:58:43.364Z,14.60
2018-06-21T03:01:12.504Z,14.50
2018-06-21T03:03:41.648Z,14.50
2018-06-21T03:06:10.744Z,14.50
2018-06-21T03:08:39.871Z,14.40
2018-06-21T03:11:08.997Z,14.40
2018-06-21T03:13:38.252Z,14.40
2018-06-21T03:16:07.402Z,14.40
2018-06-21T03:18:36.543Z,14.30
2018-06-21T03:21:05.662Z,14.30
2018-06-21T03:23:34.792Z,14.30
2018-06-21T03:26:04.341Z,14.30
2018-06-21T03:28:33.465Z,14.20
2018-06-21T03:31:02.800Z,14.20
2018-06-21T03:33:32.041Z,14.20
2018-06-21T03:36:01.209Z,14.20
2018-06-21T03:38:31.039Z,14.20
2018-06-21T03:41:00.188Z,14.10
2018-06-21T03:43:29.382Z,14.10
2018-06-21T03:45:58.545Z,14.00
2018-06-21T03:48:27.655Z,14.00
2018-06-21T03:50:56.791Z,13.90
2018-06-21T03:53:25.918Z,13.90
2018-06-21T03:55:55.045Z,13.90
2018-06-21T03:58:24.169Z,13.90
2018-06-21T04:00:53.485Z,13.90
2018-06-21T04:03:22.756Z,14.00
2018-06-21T04:05:52.014Z,13.90
2018-06-21T04:08:21.175Z,13.90
2018-06-21T04:10:51.069Z,13.90
2018-06-21T04:13:20.217Z,13.80
2018-06-21T04:15:49.329Z,13.90
2018-06-21T04:18:22.917Z,13.80
2018-06-21T04:20:52.113Z,13.80
2018-06-21T04:23:21.961Z,13.80
2018-06-21T04:25:51.111Z,13.80
2018-06-21T04:28:20.234Z,13.80
2018-06-21T04:30:49.373Z,13.80
2018-06-21T04:33:18.613Z,13.80
2018-06-21T04:35:47.709Z,13.70
2018-06-21T04:38:17.383Z,13.70
2018-06-21T04:40:46.597Z,13.70
2018-06-21T04:43:16.301Z,13.70
2018-06-21T04:45:45.489Z,13.70
2018-06-21T04:48:14.570Z,13.80
2018-06-21T04:50:43.750Z,13.80
2018-06-21T04:53:13.463Z,13.80
2018-06-21T04:55:42.617Z,13.80
2018-06-21T05:00:40.652Z,13.90
2018-06-21T05:03:09.849Z,13.80
2018-06-21T05:05:39.008Z,13.80
2018-06-21T05:08:08.117Z,13.80
2018-06-21T05:10:37.282Z,13.80
2018-06-21T05:13:06.368Z,13.80
2018-06-21T05:15:35.543Z,13.80
2018-06-21T05:18:04.715Z,13.80
2018-06-21T05:20:33.874Z,13.80
2018-06-21T05:23:03.020Z,13.80
2018-06-21T05:25:32.229Z,13.80
2018-06-21T05:28:01.422Z,13.80
2018-06-21T05:30:30.546Z,13.80
2018-06-21T05:32:59.644Z,13.80
2018-06-21T05:35:29.423Z,13.80
2018-06-21T05:37:58.589Z,13.90
2018-06-21T05:40:30.951Z,13.90
2018-06-21T05:45:29.901Z,13.90
2018-06-21T05:48:01.223Z,13.90
2018-06-21T05:50:31.637Z,13.90
2018-06-21T05:53:01.154Z,14.00
2018-06-21T05:55:31.271Z,14.00
2018-06-21T05:58:00.934Z,14.10
2018-06-21T06:00:30.384Z,14.10
2018-06-21T06:02:59.519Z,14.10
2018-06-21T06:05:28.612Z,14.20
2018-06-21T06:07:57.741Z,14.20
2018-06-21T06:10:26.893Z,14.20
2018-06-21T06:12:55.975Z,14.20
2018-06-21T06:15:25.135Z,14.30
2018-06-21T06:17:54.240Z,14.30
2018-06-21T06:20:23.343Z,14.30
2018-06-21T06:22:53.220Z,14.20
2018-06-21T06:25:22.423Z,14.30
2018-06-21T06:27:51.553Z,14.30
2018-06-21T06:30:20.656Z,14.30
2018-06-21T06:32:49.747Z,14.30
2018-06-21T06:35:18.875Z,14.20
2018-06-21T06:37:47.980Z,14.20
2018-06-21T06:40:17.152Z,14.10
2018-06-21T06:42:46.244Z,14.10
2018-06-21T06:45:15.360Z,13.90
2018-06-21T06:47:44.496Z,13.60
2018-06-21T06:50:13.596Z,13.30
2018-06-21T06:52:42.719Z,13.20
2018-06-21T06:55:11.820Z,13.20
2018-06-21T06:57:40.940Z,13.20
2018-06-21T07:00:10.165Z,13.20
2018-06-21T07:02:39.968Z,13.20
2018-06-21T07:05:09.548Z,13.20
2018-06-21T07:07:38.784Z,13.10
2018-06-21T07:10:07.956Z,13.00
2018-06-21T07:12:37.090Z,13.00
2018-06-21T07:15:06.520Z,13.10
2018-06-21T07:17:35.653Z,13.30
2018-06-21T07:20:04.753Z,13.40
2018-06-21T07:22:33.892Z,13.50
2018-06-21T07:25:03.054Z,13.60
2018-06-21T07:27:32.811Z,13.60
2018-06-21T07:30:01.911Z,13.60
2018-06-21T07:32:31.028Z,13.60
2018-06-21T07:35:00.228Z,13.70
2018-06-21T07:37:29.734Z,13.60
2018-06-21T07:39:58.865Z,13.40
2018-06-21T07:42:27.959Z,13.30
2018-06-21T07:44:57.145Z,12.70
2018-06-21T07:47:26.470Z,12.50
2018-06-21T07:49:55.564Z,12.40
2018-06-21T07:52:25.497Z,12.30
2018-06-21T07:54:54.655Z,12.40
2018-06-21T07:57:23.846Z,12.50
2018-06-21T07:59:52.940Z,12.90
2018-06-21T08:04:51.017Z,13.40
2018-06-21T08:07:20.196Z,13.40
2018-06-21T08:09:49.329Z,13.70
2018-06-21T08:12:18.412Z,13.70
2018-06-21T08:14:47.606Z,13.20
2018-06-21T08:17:16.782Z,13.20
2018-06-21T08:19:45.885Z,13.30
2018-06-21T08:22:15.182Z,13.30
2018-06-21T08:24:44.291Z,13.10
2018-06-21T08:27:13.368Z,12.90
2018-06-21T08:29:42.567Z,12.90
2018-06-21T08:32:11.699Z,13.00
2018-06-21T08:34:40.774Z,13.50
2018-06-21T08:37:09.857Z,13.70
2018-06-21T08:39:38.980Z,13.80
2018-06-21T08:42:08.212Z,13.60
2018-06-21T08:44:37.440Z,13.70
2018-06-21T08:47:06.576Z,13.90
2018-06-21T08:49:35.808Z,14.30
2018-06-21T08:52:04.959Z,14.80
2018-06-21T08:54:34.076Z,14.90
2018-06-21T08:57:03.269Z,15.20
2018-06-21T08:59:32.393Z,15.60
2018-06-21T09:02:01.474Z,15.10
2018-06-21T09:04:30.680Z,14.20
2018-06-21T09:06:59.851Z,13.70
2018-06-21T09:09:28.995Z,13.30
2018-06-21T09:11:58.095Z,13.00
2018-06-21T09:14:27.215Z,13.10
2018-06-21T09:16:57.128Z,13.30
2018-06-21T09:19:26.259Z,13.60
2018-06-21T09:21:55.381Z,14.00
2018-06-21T09:24:24.519Z,14.30
2018-06-21T09:26:53.660Z,14.00
2018-06-21T09:31:51.526Z,14.00
2018-06-21T09:34:20.696Z,13.90
2018-06-21T09:36:49.849Z,13.90
2018-06-21T09:39:24.445Z,14.00
2018-06-21T09:41:59.103Z,14.30
2018-06-21T09:44:30.788Z,14.60
2018-06-21T09:47:05.197Z,14.70
2018-06-21T09:49:35.420Z,14.60
2018-06-21T09:52:05.738Z,14.50
2018-06-21T09:54:34.939Z,14.00
2018-06-21T09:57:04.092Z,13.90
2018-06-21T09:59:33.328Z,14.10
2018-06-21T10:02:02.463Z,14.30
2018-06-21T10:04:31.572Z,14.80
2018-06-21T10:07:00.801Z,14.90
2018-06-21T10:09:29.928Z,15.30
2018-06-21T10:11:59.044Z,15.30
2018-06-21T10:14:28.212Z,15.00
2018-06-21T10:16:57.327Z,14.30
2018-06-21T10:19:26.975Z,14.40
2018-06-21T10:21:56.094Z,14.00
2018-06-21T10:24:25.268Z,14.70
2018-06-21T10:26:54.384Z,14.40
2018-06-21T10:29:23.604Z,14.20
2018-06-21T10:31:52.733Z,14.50
2018-06-21T10:34:21.854Z,14.60
2018-06-21T10:36:50.965Z,15.00
2018-06-21T10:39:20.056Z,15.20
2018-06-21T10:41:49.141Z,15.70
2018-06-21T10:46:47.054Z,14.80
2018-06-21T10:49:16.869Z,14.60
2018-06-21T10:51:46.480Z,15.40
2018-06-21T10:54:15.624Z,15.40
2018-06-21T10:56:44.740Z,16.00
2018-06-21T10:59:14.086Z,14.90
2018-06-21T11:01:43.187Z,15.30
2018-06-21T11:04:12.280Z,15.90
2018-06-21T11:06:41.418Z,16.00
2018-06-21T11:09:11.217Z,16.00
2018-06-21T11:11:40.300Z,15.80
2018-06-21T11:14:09.443Z,16.00
2018-06-21T11:16:39.259Z,16.00
2018-06-21T11:19:08.355Z,16.30
2018-06-21T11:21:37.456Z,16.70
2018-06-21T11:24:06.655Z,16.10
2018-06-21T11:26:35.817Z,16.30
2018-06-21T11:29:05.589Z,15.80
2018-06-21T11:31:34.688Z,15.90
2018-06-21T11:34:03.789Z,15.90
2018-06-21T11:36:33.080Z,15.60
2018-06-21T11:41:30.896Z,16.50
2018-06-21T11:44:00.895Z,16.30
2018-06-21T11:46:30.016Z,16.00
2018-06-21T11:48:59.128Z,15.20
2018-06-21T11:51:28.948Z,15.30
2018-06-21T11:53:58.184Z,15.40
2018-06-21T11:56:27.288Z,15.30
2018-06-21T11:58:56.413Z,15.90
2018-06-21T12:01:25.513Z,16.50
2018-06-21T12:03:54.608Z,15.90
2018-06-21T12:06:23.741Z,16.20
2018-06-21T12:08:52.949Z,16.80
2018-06-21T12:11:22.069Z,16.00
2018-06-21T12:13:51.192Z,16.20
2018-06-21T12:16:20.575Z,13.80
2018-06-21T12:18:50.384Z,13.40
2018-06-21T12:21:19.506Z,14.00
2018-06-21T12:23:48.664Z,14.60
2018-06-21T12:26:17.775Z,14.40
2018-06-21T12:28:46.950Z,14.80
2018-06-21T12:31:16.075Z,15.50
2018-06-21T12:33:52.288Z,15.20
2018-06-21T12:36:22.032Z,15.20
2018-06-21T12:38:51.199Z,15.60
2018-06-21T12:41:20.322Z,15.50
2018-06-21T12:43:49.511Z,15.70
2018-06-21T12:46:19.263Z,15.60
2018-06-21T12:48:48.392Z,15.20
2018-06-21T12:51:17.568Z,14.90
2018-06-21T12:53:46.732Z,15.50
2018-06-21T12:56:22.635Z,16.30
2018-06-21T12:58:51.760Z,16.50
2018-06-21T13:01:20.910Z,16.20
2018-06-21T13:03:50.105Z,15.90
2018-06-21T13:06:19.284Z,16.60
2018-06-21T13:08:59.559Z,17.30
2018-06-21T13:11:39.857Z,16.40
2018-06-21T13:14:24.987Z,15.90
2018-06-21T13:16:54.298Z,16.70
2018-06-21T13:19:23.411Z,16.60
2018-06-21T13:21:52.500Z,16.60
2018-06-21T13:24:21.612Z,16.80
2018-06-21T13:26:50.949Z,16.10
2018-06-21T13:29:20.069Z,17.20
2018-06-21T13:31:49.224Z,16.60
2018-06-21T13:34:18.391Z,16.90
2018-06-21T13:36:47.529Z,16.50
2018-06-21T13:39:16.656Z,15.70
2018-06-21T13:41:45.964Z,15.30
2018-06-21T13:44:15.086Z,16.10
2018-06-21T13:46:44.247Z,16.20
2018-06-21T13:49:13.387Z,16.90
2018-06-21T13:51:42.522Z,17.60
2018-06-21T13:54:12.048Z,17.40
2018-06-21T13:56:41.216Z,16.80
2018-06-21T13:59:11.403Z,17.40
2018-06-21T14:01:40.536Z,16.70
2018-06-21T14:04:09.699Z,15.60
2018-06-21T14:06:38.786Z,15.30
2018-06-21T14:09:09.832Z,14.80
2018-06-21T14:11:38.930Z,15.20
2018-06-21T14:14:08.047Z,16.40
2018-06-21T14:16:37.515Z,16.20
2018-06-21T14:19:06.920Z,16.30
2018-06-21T14:21:36.322Z,16.50
2018-06-21T14:24:11.340Z,15.60
2018-06-21T14:26:40.843Z,15.50
2018-06-21T14:29:10.942Z,16.60
2018-06-21T14:31:40.144Z,16.60
2018-06-21T14:34:09.261Z,16.00
2018-06-21T14:36:39.193Z,16.10
2018-06-21T14:39:09.093Z,15.80
2018-06-21T14:41:38.363Z,16.80
2018-06-21T14:44:07.484Z,17.70
2018-06-21T14:46:36.741Z,16.90
2018-06-21T14:49:05.924Z,16.80
2018-06-21T14:51:35.028Z,17.20
2018-06-21T14:54:04.319Z,15.60
2018-06-21T14:56:34.208Z,15.80
2018-06-21T14:59:03.357Z,15.80
2018-06-21T15:01:32.502Z,16.10
2018-06-21T15:04:01.605Z,17.30
2018-06-21T15:06:30.866Z,18.00
2018-06-21T15:09:00.119Z,19.10
2018-06-21T15:11:29.192Z,18.20
2018-06-21T15:13:58.309Z,16.50
2018-06-21T15:16:27.407Z,16.40
2018-06-21T15:18:56.580Z,17.00
2018-06-21T15:21:25.743Z,17.60
2018-06-21T15:23:54.861Z,17.30
2018-06-21T15:26:23.986Z,17.10
2018-06-21T15:28:53.113Z,17.40
2018-06-21T15:31:22.265Z,16.10
2018-06-21T15:33:51.436Z,15.70
2018-06-21T15:36:20.576Z,15.50
2018-06-21T15:38:49.733Z,15.10
2018-06-21T15:41:20.276Z,15.10
2018-06-21T15:43:49.489Z,15.20
2018-06-21T15:46:18.700Z,15.10
2018-06-21T15:48:47.931Z,14.80
2018-06-21T15:51:17.128Z,15.60
2018-06-21T15:53:46.306Z,15.30
2018-06-21T15:56:15.441Z,15.50
2018-06-21T15:58:44.545Z,15.00
2018-06-21T16:01:13.669Z,14.80
2018-06-21T16:03:45.712Z,16.30
2018-06-21T16:06:14.835Z,17.10
2018-06-21T16:08:44.007Z,18.20
2018-06-21T16:11:13.647Z,17.10
2018-06-21T16:13:42.841Z,17.00
2018-06-21T16:16:11.934Z,16.70
2018-06-21T16:21:10.235Z,15.40
2018-06-21T16:23:39.374Z,15.20
2018-06-21T16:26:08.505Z,14.90
2018-06-21T16:28:38.330Z,15.20
2018-06-21T16:31:07.487Z,16.10
2018-06-21T16:33:38.235Z,15.30
2018-06-21T16:36:07.679Z,14.80
2018-06-21T16:38:36.782Z,15.00
2018-06-21T16:41:05.995Z,14.80
2018-06-21T16:43:35.184Z,14.50
2018-06-21T16:46:04.325Z,14.90
2018-06-21T16:48:33.428Z,15.00
2018-06-21T16:51:02.574Z,15.20
2018-06-21T16:53:31.666Z,15.20
2018-06-21T16:56:07.364Z,16.00
2018-06-21T16:58:37.667Z,17.60
2018-06-21T17:01:06.861Z,18.10
2018-06-21T17:03:35.960Z,17.10
2018-06-21T17:06:05.139Z,17.70
2018-06-21T17:08:34.283Z,16.80
2018-06-21T17:11:03.420Z,15.20
2018-06-21T17:13:32.603Z,14.50
2018-06-21T17:16:01.753Z,14.50
2018-06-21T17:18:31.109Z,14.80
2018-06-21T17:21:00.255Z,15.60
2018-06-21T17:23:29.428Z,16.50
2018-06-21T17:25:58.673Z,16.40
2018-06-21T17:28:27.800Z,15.90
2018-06-21T17:30:56.908Z,14.50
2018-06-21T17:33:26.117Z,14.20
2018-06-21T17:35:55.292Z,14.30
2018-06-21T17:38:24.440Z,15.60
2018-06-21T17:40:53.677Z,14.70
2018-06-21T17:43:22.907Z,14.90
2018-06-21T17:45:52.079Z,14.20
2018-06-21T17:48:21.172Z,14.20
2018-06-21T17:50:50.262Z,14.70
2018-06-21T17:53:19.440Z,15.00
2018-06-21T17:55:48.657Z,15.70
2018-06-21T17:58:17.866Z,15.90
2018-06-21T18:00:46.971Z,15.00
2018-06-21T18:03:16.103Z,15.50
2018-06-21T18:05:45.222Z,15.80
2018-06-21T18:08:14.393Z,15.30
2018-06-21T18:10:43.595Z,15.10
2018-06-21T18:15:42.013Z,14.80
2018-06-21T18:18:11.173Z,14.20
2018-06-21T18:20:40.263Z,13.80
2018-06-21T18:23:10.268Z,14.30
2018-06-21T18:25:39.391Z,14.00
2018-06-21T18:28:08.548Z,13.70
2018-06-21T18:30:37.706Z,13.50
2018-06-21T18:33:06.819Z,13.40
2018-06-21T18:35:35.939Z,13.40
2018-06-21T18:38:05.105Z,13.40
2018-06-21T18:40:34.489Z,13.40
2018-06-21T18:43:03.671Z,13.40
2018-06-21T18:45:33.587Z,13.40
2018-06-21T18:48:02.720Z,13.30
2018-06-21T18:50:31.890Z,13.30
2018-06-21T18:53:01.000Z,13.20
2018-06-21T18:55:30.097Z,13.10
2018-06-21T18:57:59.241Z,13.00
2018-06-21T19:00:28.455Z,13.00
2018-06-21T19:02:57.647Z,12.80
2018-06-21T19:05:26.763Z,12.30
2018-06-21T19:08:01.445Z,12.10
2018-06-21T19:10:36.156Z,11.90
2018-06-21T19:13:05.369Z,11.80
2018-06-21T19:15:34.529Z,11.70
2018-06-21T19:18:03.687Z,11.80
2018-06-21T19:20:32.811Z,11.70
2018-06-21T19:23:01.958Z,11.50
2018-06-21T19:25:31.129Z,10.90
2018-06-21T19:28:00.836Z,10.80
2018-06-21T19:30:29.965Z,10.70
2018-06-21T19:32:59.106Z,10.70
2018-06-21T19:35:28.378Z,10.70
2018-06-21T19:37:57.564Z,10.70
2018-06-21T19:40:26.776Z,10.70
2018-06-21T19:42:55.928Z,10.80
2018-06-21T19:45:25.066Z,10.80
2018-06-21T19:47:54.262Z,10.80
2018-06-21T19:50:23.398Z,11.00
2018-06-21T19:52:53.442Z,11.00
2018-06-21T19:55:22.617Z,11.00
2018-06-21T19:57:51.792Z,11.20
2018-06-21T20:00:21.068Z,11.20
2018-06-21T20:02:55.595Z,11.20
2018-06-21T20:05:24.912Z,11.30
2018-06-21T20:07:54.024Z,11.40
2018-06-21T20:10:23.160Z,11.50
2018-06-21T20:12:52.368Z,11.50
2018-06-21T20:15:21.440Z,11.40
2018-06-21T20:17:50.765Z,11.00
2018-06-21T20:20:25.422Z,10.60
2018-06-21T20:22:54.540Z,10.50
2018-06-21T20:25:23.686Z,10.50
2018-06-21T20:27:52.836Z,10.50
2018-06-21T20:30:21.988Z,10.60
2018-06-21T20:32:51.128Z,10.80
2018-06-21T20:35:20.243Z,10.70
2018-06-21T20:37:49.391Z,10.50
2018-06-21T20:40:18.540Z,10.40
2018-06-21T20:42:47.674Z,10.40
2018-06-21T20:45:16.952Z,10.30
2018-06-21T20:47:46.063Z,10.30
2018-06-21T20:50:15.180Z,10.50
2018-06-21T20:52:44.288Z,10.60
2018-06-21T20:55:13.481Z,10.60
2018-06-21T20:57:42.637Z,10.30
2018-06-21T21:00:11.741Z,10.30
2018-06-21T21:02:40.889Z,10.30
2018-06-21T21:07:39.592Z,10.40
2018-06-21T21:10:09.928Z,10.40
2018-06-21T21:12:39.436Z,10.50
2018-06-21T21:15:09.666Z,10.70
2018-06-21T21:17:38.808Z,10.90
2018-06-21T21:20:08.460Z,11.00
2018-06-21T21:22:38.536Z,11.00
2018-06-21T21:25:07.748Z,10.90
2018-06-21T21:27:37.604Z,10.80
2018-06-21T21:30:07.828Z,10.80
2018-06-21T21:32:37.064Z,10.80
2018-06-21T21:35:06.293Z,10.90
2018-06-21T21:37:35.381Z,11.10
2018-06-21T21:42:35.760Z,11.40
2018-06-21T21:45:05.143Z,11.40
2018-06-21T21:47:34.357Z,11.30
2018-06-21T21:50:03.529Z,11.30
2018-06-21T21:52:32.688Z,11.20
2018-06-21T21:55:01.820Z,11.20
2018-06-21T21:57:30.924Z,11.20
2018-06-21T22:00:00.027Z,11.20
2018-06-21T22:04:57.969Z,11.30
2018-06-21T22:07:27.164Z,11.30
2018-06-21T22:09:56.337Z,11.30
2018-06-21T22:12:25.484Z,11.40
2018-06-21T22:14:54.695Z,11.50
2018-06-21T22:17:23.834Z,11.50
2018-06-21T22:19:52.987Z,11.60
2018-06-21T22:22:22.097Z,11.50
2018-06-21T22:27:20.076Z,11.50
2018-06-21T22:29:49.162Z,11.50
2018-06-21T22:32:18.316Z,11.50
2018-06-21T22:34:47.403Z,11.50
2018-06-21T22:37:16.520Z,11.40
2018-06-21T22:39:45.752Z,11.50
2018-06-21T22:42:14.956Z,11.50
2018-06-21T22:44:44.139Z,11.50
2018-06-21T22:47:13.255Z,11.70
2018-06-21T22:49:42.423Z,11.60
2018-06-21T22:52:11.561Z,11.50
2018-06-21T22:54:40.794Z,11.40
2018-06-21T22:57:09.951Z,11.40
2018-06-21T22:59:39.071Z,11.40
2018-06-21T23:02:08.187Z,11.40
2018-06-21T23:04:37.271Z,11.30
2018-06-21T23:07:06.400Z,11.40
2018-06-21T23:09:35.521Z,11.40
2018-06-21T23:12:04.673Z,11.50
2018-06-21T23:14:33.809Z,11.40
2018-06-21T23:17:02.905Z,11.50
2018-06-21T23:19:33.164Z,11.50
2018-06-21T23:22:03.089Z,11.60
2018-06-21T23:24:32.181Z,11.60
2018-06-21T23:27:01.310Z,11.40
2018-06-21T23:29:30.867Z,10.90
2018-06-21T23:31:59.969Z,10.90
2018-06-21T23:34:29.065Z,10.90
2018-06-21T23:39:26.913Z,11.00
2018-06-21T23:41:56.007Z,11.10
2018-06-21T23:44:25.207Z,11.00
2018-06-21T23:46:54.347Z,11.00
2018-06-21T23:49:23.556Z,11.00
2018-06-21T23:51:52.640Z,10.90
2018-06-21T23:54:21.734Z,10.90
2018-06-21T23:56:50.935Z,10.90
2018-06-21T23:59:20.052Z,10.50
